sensor_id;sensor_type;location;lat;lon;timestamp;temperature;humidity
23377;DHT22;14353;46.070;13.222;2023-08-06T00:00:27;26.90;53.90
23377;DHT22;14353;46.070;13.222;2023-08-06T00:02:52;26.90;53.90
23377;DHT22;14353;46.070;13.222;2023-08-06T00:05:18;26.90;53.90
23377;DHT22;14353;46.070;13.222;2023-08-06T00:07:47;26.90;53.90
23377;DHT22;14353;46.070;13.222;2023-08-06T00:10:13;26.90;53.90
23377;DHT22;14353;46.070;13.222;2023-08-06T00:12:38;26.90;53.90
23377;DHT22;14353;46.070;13.222;2023-08-06T00:15:04;26.90;53.90
23377;DHT22;14353;46.070;13.222;2023-08-06T00:17:30;26.90;54.60
23377;DHT22;14353;46.070;13.222;2023-08-06T00:19:56;26.90;53.90
23377;DHT22;14353;46.070;13.222;2023-08-06T00:22:22;26.90;54.00
23377;DHT22;14353;46.070;13.222;2023-08-06T00:24:47;26.90;53.90
23377;DHT22;14353;46.070;13.222;2023-08-06T00:27:13;26.90;54.00
23377;DHT22;14353;46.070;13.222;2023-08-06T00:29:39;26.90;54.00
23377;DHT22;14353;46.070;13.222;2023-08-06T00:32:04;26.90;53.90
23377;DHT22;14353;46.070;13.222;2023-08-06T00:34:30;26.90;53.90
23377;DHT22;14353;46.070;13.222;2023-08-06T00:36:56;26.90;54.00
23377;DHT22;14353;46.070;13.222;2023-08-06T00:39:21;26.90;53.90
23377;DHT22;14353;46.070;13.222;2023-08-06T00:41:47;26.90;53.90
23377;DHT22;14353;46.070;13.222;2023-08-06T00:44:13;26.90;53.90
23377;DHT22;14353;46.070;13.222;2023-08-06T00:46:38;26.90;54.00
23377;DHT22;14353;46.070;13.222;2023-08-06T00:49:04;26.90;53.90
23377;DHT22;14353;46.070;13.222;2023-08-06T00:51:30;26.90;54.00
23377;DHT22;14353;46.070;13.222;2023-08-06T00:53:57;26.90;53.90
23377;DHT22;14353;46.070;13.222;2023-08-06T00:56:23;26.90;53.90
23377;DHT22;14353;46.070;13.222;2023-08-06T00:58:49;26.80;53.90
23377;DHT22;14353;46.070;13.222;2023-08-06T01:01:15;26.90;53.90
23377;DHT22;14353;46.070;13.222;2023-08-06T01:03:41;26.80;53.90
23377;DHT22;14353;46.070;13.222;2023-08-06T01:06:07;26.80;53.90
23377;DHT22;14353;46.070;13.222;2023-08-06T01:12:07;26.80;53.90
23377;DHT22;14353;46.070;13.222;2023-08-06T01:14:33;26.80;53.90
23377;DHT22;14353;46.070;13.222;2023-08-06T01:17:03;26.80;53.90
23377;DHT22;14353;46.070;13.222;2023-08-06T01:19:30;26.90;53.90
23377;DHT22;14353;46.070;13.222;2023-08-06T01:21:55;26.80;53.90
23377;DHT22;14353;46.070;13.222;2023-08-06T01:24:21;26.80;53.90
23377;DHT22;14353;46.070;13.222;2023-08-06T01:27:08;26.80;53.90
23377;DHT22;14353;46.070;13.222;2023-08-06T01:29:41;26.80;53.90
23377;DHT22;14353;46.070;13.222;2023-08-06T01:32:10;26.80;53.90
23377;DHT22;14353;46.070;13.222;2023-08-06T01:34:39;26.80;53.90
23377;DHT22;14353;46.070;13.222;2023-08-06T01:37:06;26.80;53.90
23377;DHT22;14353;46.070;13.222;2023-08-06T01:39:35;26.80;53.90
23377;DHT22;14353;46.070;13.222;2023-08-06T01:42:01;26.80;54.00
23377;DHT22;14353;46.070;13.222;2023-08-06T01:44:27;26.80;53.90
23377;DHT22;14353;46.070;13.222;2023-08-06T01:46:53;26.80;53.90
23377;DHT22;14353;46.070;13.222;2023-08-06T01:49:19;26.80;53.90
23377;DHT22;14353;46.070;13.222;2023-08-06T01:51:44;26.80;53.90
23377;DHT22;14353;46.070;13.222;2023-08-06T01:54:10;26.80;54.50
23377;DHT22;14353;46.070;13.222;2023-08-06T01:56:36;26.80;53.90
23377;DHT22;14353;46.070;13.222;2023-08-06T01:59:01;26.80;54.00
23377;DHT22;14353;46.070;13.222;2023-08-06T02:01:27;26.80;53.90
23377;DHT22;14353;46.070;13.222;2023-08-06T02:03:53;26.80;53.90
23377;DHT22;14353;46.070;13.222;2023-08-06T02:06:18;26.70;53.80
23377;DHT22;14353;46.070;13.222;2023-08-06T02:08:44;26.80;54.00
23377;DHT22;14353;46.070;13.222;2023-08-06T02:11:10;26.80;53.90
23377;DHT22;14353;46.070;13.222;2023-08-06T02:13:35;26.70;53.90
23377;DHT22;14353;46.070;13.222;2023-08-06T02:16:01;26.80;54.00
23377;DHT22;14353;46.070;13.222;2023-08-06T02:18:27;26.80;54.00
23377;DHT22;14353;46.070;13.222;2023-08-06T02:20:57;26.80;54.00
23377;DHT22;14353;46.070;13.222;2023-08-06T02:23:23;26.80;54.00
23377;DHT22;14353;46.070;13.222;2023-08-06T02:25:48;26.80;54.00
23377;DHT22;14353;46.070;13.222;2023-08-06T02:28:21;26.80;54.00
23377;DHT22;14353;46.070;13.222;2023-08-06T02:30:51;26.80;54.00
23377;DHT22;14353;46.070;13.222;2023-08-06T02:33:17;26.70;53.90
23377;DHT22;14353;46.070;13.222;2023-08-06T02:35:42;26.70;53.90
23377;DHT22;14353;46.070;13.222;2023-08-06T02:38:08;26.70;53.90
23377;DHT22;14353;46.070;13.222;2023-08-06T02:40:34;26.70;53.90
23377;DHT22;14353;46.070;13.222;2023-08-06T02:42:59;26.70;53.90
23377;DHT22;14353;46.070;13.222;2023-08-06T02:45:25;26.70;53.90
23377;DHT22;14353;46.070;13.222;2023-08-06T02:47:51;26.70;53.90
23377;DHT22;14353;46.070;13.222;2023-08-06T02:50:16;26.70;53.90
23377;DHT22;14353;46.070;13.222;2023-08-06T02:52:42;26.70;54.00
23377;DHT22;14353;46.070;13.222;2023-08-06T02:55:08;26.70;54.00
23377;DHT22;14353;46.070;13.222;2023-08-06T02:57:33;26.70;53.90
23377;DHT22;14353;46.070;13.222;2023-08-06T02:59:59;26.70;54.00
23377;DHT22;14353;46.070;13.222;2023-08-06T03:02:25;26.70;54.00
23377;DHT22;14353;46.070;13.222;2023-08-06T03:04:50;26.70;54.00
23377;DHT22;14353;46.070;13.222;2023-08-06T03:07:16;26.70;54.00
23377;DHT22;14353;46.070;13.222;2023-08-06T03:09:42;26.70;54.00
23377;DHT22;14353;46.070;13.222;2023-08-06T03:12:08;26.70;54.00
23377;DHT22;14353;46.070;13.222;2023-08-06T03:14:36;26.70;54.00
23377;DHT22;14353;46.070;13.222;2023-08-06T03:17:02;26.70;54.00
23377;DHT22;14353;46.070;13.222;2023-08-06T03:19:28;26.70;54.00
23377;DHT22;14353;46.070;13.222;2023-08-06T03:21:53;26.70;54.00
23377;DHT22;14353;46.070;13.222;2023-08-06T03:24:19;26.60;54.00
23377;DHT22;14353;46.070;13.222;2023-08-06T03:26:45;26.70;54.00
23377;DHT22;14353;46.070;13.222;2023-08-06T03:29:11;26.70;54.00
23377;DHT22;14353;46.070;13.222;2023-08-06T03:31:36;26.60;54.00
23377;DHT22;14353;46.070;13.222;2023-08-06T03:34:02;26.60;54.00
23377;DHT22;14353;46.070;13.222;2023-08-06T03:36:28;26.70;54.10
23377;DHT22;14353;46.070;13.222;2023-08-06T03:38:53;26.60;54.00
23377;DHT22;14353;46.070;13.222;2023-08-06T03:41:19;26.70;54.10
23377;DHT22;14353;46.070;13.222;2023-08-06T03:43:45;26.60;54.00
23377;DHT22;14353;46.070;13.222;2023-08-06T03:46:10;26.60;54.00
23377;DHT22;14353;46.070;13.222;2023-08-06T03:48:36;26.60;54.00
23377;DHT22;14353;46.070;13.222;2023-08-06T03:51:02;26.60;54.00
23377;DHT22;14353;46.070;13.222;2023-08-06T03:53:27;26.60;54.00
23377;DHT22;14353;46.070;13.222;2023-08-06T03:55:53;26.60;54.00
23377;DHT22;14353;46.070;13.222;2023-08-06T03:58:21;26.60;54.00
23377;DHT22;14353;46.070;13.222;2023-08-06T04:00:46;26.60;54.00
23377;DHT22;14353;46.070;13.222;2023-08-06T04:03:12;26.60;54.00
23377;DHT22;14353;46.070;13.222;2023-08-06T04:05:38;26.60;54.10
23377;DHT22;14353;46.070;13.222;2023-08-06T04:08:03;26.60;54.10
23377;DHT22;14353;46.070;13.222;2023-08-06T04:10:29;26.60;54.00
23377;DHT22;14353;46.070;13.222;2023-08-06T04:12:55;26.60;54.00
23377;DHT22;14353;46.070;13.222;2023-08-06T04:15:20;26.60;54.10
23377;DHT22;14353;46.070;13.222;2023-08-06T04:17:46;26.60;54.00
23377;DHT22;14353;46.070;13.222;2023-08-06T04:20:12;26.60;54.00
23377;DHT22;14353;46.070;13.222;2023-08-06T04:22:38;26.60;54.10
23377;DHT22;14353;46.070;13.222;2023-08-06T04:25:03;26.60;54.10
23377;DHT22;14353;46.070;13.222;2023-08-06T04:27:29;26.60;54.10
23377;DHT22;14353;46.070;13.222;2023-08-06T04:29:55;26.60;54.00
23377;DHT22;14353;46.070;13.222;2023-08-06T04:32:21;26.60;54.00
23377;DHT22;14353;46.070;13.222;2023-08-06T04:34:46;26.60;54.10
23377;DHT22;14353;46.070;13.222;2023-08-06T04:37:13;26.50;54.00
23377;DHT22;14353;46.070;13.222;2023-08-06T04:39:39;26.60;54.10
23377;DHT22;14353;46.070;13.222;2023-08-06T04:42:05;26.50;54.00
23377;DHT22;14353;46.070;13.222;2023-08-06T04:44:30;26.60;54.10
23377;DHT22;14353;46.070;13.222;2023-08-06T04:46:56;26.60;54.10
23377;DHT22;14353;46.070;13.222;2023-08-06T04:49:22;26.60;54.10
23377;DHT22;14353;46.070;13.222;2023-08-06T04:51:48;26.50;54.00
23377;DHT22;14353;46.070;13.222;2023-08-06T04:54:14;26.60;54.10
23377;DHT22;14353;46.070;13.222;2023-08-06T04:56:39;26.60;54.10
23377;DHT22;14353;46.070;13.222;2023-08-06T04:59:05;26.60;54.00
23377;DHT22;14353;46.070;13.222;2023-08-06T05:01:31;26.60;54.10
23377;DHT22;14353;46.070;13.222;2023-08-06T05:03:57;26.60;54.10
23377;DHT22;14353;46.070;13.222;2023-08-06T05:06:23;26.60;54.00
23377;DHT22;14353;46.070;13.222;2023-08-06T05:08:48;26.50;54.00
23377;DHT22;14353;46.070;13.222;2023-08-06T05:11:14;26.50;54.00
23377;DHT22;14353;46.070;13.222;2023-08-06T05:13:39;26.60;54.00
23377;DHT22;14353;46.070;13.222;2023-08-06T05:16:05;26.60;54.00
23377;DHT22;14353;46.070;13.222;2023-08-06T05:18:31;26.60;54.00
23377;DHT22;14353;46.070;13.222;2023-08-06T05:20:56;26.60;54.00
23377;DHT22;14353;46.070;13.222;2023-08-06T05:23:22;26.60;54.00
23377;DHT22;14353;46.070;13.222;2023-08-06T05:25:48;26.60;54.00
23377;DHT22;14353;46.070;13.222;2023-08-06T05:28:14;26.60;54.00
23377;DHT22;14353;46.070;13.222;2023-08-06T05:30:42;26.60;54.00
23377;DHT22;14353;46.070;13.222;2023-08-06T05:33:08;26.60;53.90
23377;DHT22;14353;46.070;13.222;2023-08-06T05:35:34;26.60;54.00
23377;DHT22;14353;46.070;13.222;2023-08-06T05:37:59;26.60;53.90
23377;DHT22;14353;46.070;13.222;2023-08-06T05:40:25;26.60;53.90
23377;DHT22;14353;46.070;13.222;2023-08-06T05:42:54;26.60;53.90
23377;DHT22;14353;46.070;13.222;2023-08-06T05:45:20;26.60;53.90
23377;DHT22;14353;46.070;13.222;2023-08-06T05:47:48;26.60;53.90
23377;DHT22;14353;46.070;13.222;2023-08-06T05:50:13;26.60;53.90
23377;DHT22;14353;46.070;13.222;2023-08-06T05:52:39;26.60;53.90
23377;DHT22;14353;46.070;13.222;2023-08-06T05:55:05;26.60;53.90
23377;DHT22;14353;46.070;13.222;2023-08-06T05:57:31;26.60;53.90
23377;DHT22;14353;46.070;13.222;2023-08-06T05:59:57;26.60;53.90
23377;DHT22;14353;46.070;13.222;2023-08-06T06:02:22;26.60;53.90
23377;DHT22;14353;46.070;13.222;2023-08-06T06:04:48;26.60;53.90
23377;DHT22;14353;46.070;13.222;2023-08-06T06:07:14;26.60;54.00
23377;DHT22;14353;46.070;13.222;2023-08-06T06:09:40;26.60;53.90
23377;DHT22;14353;46.070;13.222;2023-08-06T06:12:06;26.60;53.80
23377;DHT22;14353;46.070;13.222;2023-08-06T06:14:32;26.60;53.80
23377;DHT22;14353;46.070;13.222;2023-08-06T06:16:58;26.60;53.80
23377;DHT22;14353;46.070;13.222;2023-08-06T06:19:24;26.60;53.80
23377;DHT22;14353;46.070;13.222;2023-08-06T06:21:50;26.60;53.70
23377;DHT22;14353;46.070;13.222;2023-08-06T06:24:16;26.60;53.70
23377;DHT22;14353;46.070;13.222;2023-08-06T06:26:41;26.60;53.70
23377;DHT22;14353;46.070;13.222;2023-08-06T06:29:07;26.70;54.40
23377;DHT22;14353;46.070;13.222;2023-08-06T06:31:33;26.70;53.80
23377;DHT22;14353;46.070;13.222;2023-08-06T06:33:58;26.70;53.80
23377;DHT22;14353;46.070;13.222;2023-08-06T06:36:24;26.70;53.80
23377;DHT22;14353;46.070;13.222;2023-08-06T06:38:50;26.70;53.70
23377;DHT22;14353;46.070;13.222;2023-08-06T06:41:15;26.70;53.70
23377;DHT22;14353;46.070;13.222;2023-08-06T06:43:42;26.70;53.70
23377;DHT22;14353;46.070;13.222;2023-08-06T06:46:07;26.70;53.70
23377;DHT22;14353;46.070;13.222;2023-08-06T06:48:33;26.70;53.70
23377;DHT22;14353;46.070;13.222;2023-08-06T06:50:59;26.70;53.70
23377;DHT22;14353;46.070;13.222;2023-08-06T06:53:25;26.70;53.70
23377;DHT22;14353;46.070;13.222;2023-08-06T06:56:02;26.70;53.60
23377;DHT22;14353;46.070;13.222;2023-08-06T06:58:28;26.70;53.60
23377;DHT22;14353;46.070;13.222;2023-08-06T07:00:53;26.70;53.60
23377;DHT22;14353;46.070;13.222;2023-08-06T07:03:20;26.70;53.60
23377;DHT22;14353;46.070;13.222;2023-08-06T07:05:46;26.70;53.50
23377;DHT22;14353;46.070;13.222;2023-08-06T07:08:11;26.70;53.50
23377;DHT22;14353;46.070;13.222;2023-08-06T07:10:37;26.80;53.60
23377;DHT22;14353;46.070;13.222;2023-08-06T07:13:03;26.80;53.50
23377;DHT22;14353;46.070;13.222;2023-08-06T07:15:29;26.80;53.50
23377;DHT22;14353;46.070;13.222;2023-08-06T07:17:55;26.80;53.40
23377;DHT22;14353;46.070;13.222;2023-08-06T07:20:20;26.80;53.40
23377;DHT22;14353;46.070;13.222;2023-08-06T07:22:46;26.80;53.30
23377;DHT22;14353;46.070;13.222;2023-08-06T07:25:12;26.80;53.30
23377;DHT22;14353;46.070;13.222;2023-08-06T07:27:38;26.80;53.30
23377;DHT22;14353;46.070;13.222;2023-08-06T07:30:04;26.90;53.30
23377;DHT22;14353;46.070;13.222;2023-08-06T07:32:31;26.80;53.20
23377;DHT22;14353;46.070;13.222;2023-08-06T07:34:56;26.90;53.20
23377;DHT22;14353;46.070;13.222;2023-08-06T07:37:28;26.90;53.20
23377;DHT22;14353;46.070;13.222;2023-08-06T07:39:54;26.90;53.20
23377;DHT22;14353;46.070;13.222;2023-08-06T07:42:21;26.90;53.10
23377;DHT22;14353;46.070;13.222;2023-08-06T07:44:54;26.90;53.10
23377;DHT22;14353;46.070;13.222;2023-08-06T07:47:21;26.90;53.10
23377;DHT22;14353;46.070;13.222;2023-08-06T07:49:46;27.00;53.00
23377;DHT22;14353;46.070;13.222;2023-08-06T07:52:12;26.90;52.90
23377;DHT22;14353;46.070;13.222;2023-08-06T07:54:38;27.00;52.90
23377;DHT22;14353;46.070;13.222;2023-08-06T07:57:04;27.00;52.90
23377;DHT22;14353;46.070;13.222;2023-08-06T07:59:30;27.00;52.80
23377;DHT22;14353;46.070;13.222;2023-08-06T08:01:56;27.00;52.80
23377;DHT22;14353;46.070;13.222;2023-08-06T08:04:21;27.10;52.70
23377;DHT22;14353;46.070;13.222;2023-08-06T08:06:47;27.10;52.70
23377;DHT22;14353;46.070;13.222;2023-08-06T08:09:13;27.10;52.70
23377;DHT22;14353;46.070;13.222;2023-08-06T08:11:40;27.10;52.70
23377;DHT22;14353;46.070;13.222;2023-08-06T08:14:06;27.10;52.60
23377;DHT22;14353;46.070;13.222;2023-08-06T08:16:32;27.10;52.60
23377;DHT22;14353;46.070;13.222;2023-08-06T08:18:57;27.10;52.50
23377;DHT22;14353;46.070;13.222;2023-08-06T08:21:23;27.20;52.50
23377;DHT22;14353;46.070;13.222;2023-08-06T08:23:51;27.20;52.50
23377;DHT22;14353;46.070;13.222;2023-08-06T08:26:17;27.20;52.50
23377;DHT22;14353;46.070;13.222;2023-08-06T08:28:43;27.20;52.40
23377;DHT22;14353;46.070;13.222;2023-08-06T08:31:10;27.20;52.40
23377;DHT22;14353;46.070;13.222;2023-08-06T08:33:37;27.20;52.30
23377;DHT22;14353;46.070;13.222;2023-08-06T08:36:03;27.20;52.30
23377;DHT22;14353;46.070;13.222;2023-08-06T08:38:29;27.20;52.40
23377;DHT22;14353;46.070;13.222;2023-08-06T08:40:55;27.20;52.40
23377;DHT22;14353;46.070;13.222;2023-08-06T08:43:21;27.20;52.40
23377;DHT22;14353;46.070;13.222;2023-08-06T08:45:50;27.20;52.40
23377;DHT22;14353;46.070;13.222;2023-08-06T08:48:17;27.20;52.40
23377;DHT22;14353;46.070;13.222;2023-08-06T08:50:45;27.20;52.40
23377;DHT22;14353;46.070;13.222;2023-08-06T08:53:13;27.20;52.30
23377;DHT22;14353;46.070;13.222;2023-08-06T08:55:40;27.20;52.30
23377;DHT22;14353;46.070;13.222;2023-08-06T08:58:08;27.20;52.40
23377;DHT22;14353;46.070;13.222;2023-08-06T09:00:34;27.20;52.30
23377;DHT22;14353;46.070;13.222;2023-08-06T09:03:00;27.20;52.30
23377;DHT22;14353;46.070;13.222;2023-08-06T09:05:29;27.20;52.20
23377;DHT22;14353;46.070;13.222;2023-08-06T09:08:04;27.30;52.30
23377;DHT22;14353;46.070;13.222;2023-08-06T09:10:30;27.20;52.20
23377;DHT22;14353;46.070;13.222;2023-08-06T09:12:57;27.30;52.30
23377;DHT22;14353;46.070;13.222;2023-08-06T09:15:27;27.30;52.20
23377;DHT22;14353;46.070;13.222;2023-08-06T09:17:54;27.30;52.10
23377;DHT22;14353;46.070;13.222;2023-08-06T09:20:20;27.30;52.10
23377;DHT22;14353;46.070;13.222;2023-08-06T09:22:45;27.30;52.10
23377;DHT22;14353;46.070;13.222;2023-08-06T09:25:21;27.30;52.10
23377;DHT22;14353;46.070;13.222;2023-08-06T09:27:49;27.30;52.00
23377;DHT22;14353;46.070;13.222;2023-08-06T09:30:29;27.30;52.00
23377;DHT22;14353;46.070;13.222;2023-08-06T09:32:56;27.30;52.00
23377;DHT22;14353;46.070;13.222;2023-08-06T09:35:22;27.40;52.00
23377;DHT22;14353;46.070;13.222;2023-08-06T09:37:48;27.40;52.00
23377;DHT22;14353;46.070;13.222;2023-08-06T09:40:29;27.40;51.90
23377;DHT22;14353;46.070;13.222;2023-08-06T09:42:55;27.40;51.90
23377;DHT22;14353;46.070;13.222;2023-08-06T09:45:21;27.40;51.80
23377;DHT22;14353;46.070;13.222;2023-08-06T09:47:52;27.40;51.80
23377;DHT22;14353;46.070;13.222;2023-08-06T09:50:20;27.40;51.80
23377;DHT22;14353;46.070;13.222;2023-08-06T09:52:50;27.40;51.80
23377;DHT22;14353;46.070;13.222;2023-08-06T09:55:18;27.40;51.70
23377;DHT22;14353;46.070;13.222;2023-08-06T09:57:44;27.40;51.70
23377;DHT22;14353;46.070;13.222;2023-08-06T10:00:10;27.40;51.70
23377;DHT22;14353;46.070;13.222;2023-08-06T10:02:38;27.40;51.70
23377;DHT22;14353;46.070;13.222;2023-08-06T10:05:05;27.40;51.70
23377;DHT22;14353;46.070;13.222;2023-08-06T10:07:31;27.40;51.70
23377;DHT22;14353;46.070;13.222;2023-08-06T10:09:57;27.40;51.70
23377;DHT22;14353;46.070;13.222;2023-08-06T10:12:24;27.40;51.70
23377;DHT22;14353;46.070;13.222;2023-08-06T10:14:54;27.50;51.70
23377;DHT22;14353;46.070;13.222;2023-08-06T10:17:22;27.40;51.60
23377;DHT22;14353;46.070;13.222;2023-08-06T10:19:50;27.50;51.70
23377;DHT22;14353;46.070;13.222;2023-08-06T10:22:17;27.50;51.70
23377;DHT22;14353;46.070;13.222;2023-08-06T10:24:53;27.50;51.70
23377;DHT22;14353;46.070;13.222;2023-08-06T10:27:30;27.50;51.70
23377;DHT22;14353;46.070;13.222;2023-08-06T10:30:30;27.50;51.70
23377;DHT22;14353;46.070;13.222;2023-08-06T10:32:58;27.50;51.60
23377;DHT22;14353;46.070;13.222;2023-08-06T10:38:20;27.50;51.60
23377;DHT22;14353;46.070;13.222;2023-08-06T10:43:33;27.50;51.40
23377;DHT22;14353;46.070;13.222;2023-08-06T10:46:03;27.50;51.40
23377;DHT22;14353;46.070;13.222;2023-08-06T10:48:31;27.50;51.40
23377;DHT22;14353;46.070;13.222;2023-08-06T10:50:58;27.60;51.40
23377;DHT22;14353;46.070;13.222;2023-08-06T10:53:24;27.60;51.30
23377;DHT22;14353;46.070;13.222;2023-08-06T10:55:50;27.60;51.30
23377;DHT22;14353;46.070;13.222;2023-08-06T10:58:16;27.60;51.30
23377;DHT22;14353;46.070;13.222;2023-08-06T11:00:42;27.60;51.20
23377;DHT22;14353;46.070;13.222;2023-08-06T11:03:08;27.60;51.20
23377;DHT22;14353;46.070;13.222;2023-08-06T11:05:35;27.60;51.20
23377;DHT22;14353;46.070;13.222;2023-08-06T11:08:01;27.70;51.10
23377;DHT22;14353;46.070;13.222;2023-08-06T11:10:27;27.70;51.10
23377;DHT22;14353;46.070;13.222;2023-08-06T11:12:53;27.70;50.90
23377;DHT22;14353;46.070;13.222;2023-08-06T11:15:20;27.70;50.90
23377;DHT22;14353;46.070;13.222;2023-08-06T11:17:46;27.80;50.90
23377;DHT22;14353;46.070;13.222;2023-08-06T11:20:13;27.80;50.80
23377;DHT22;14353;46.070;13.222;2023-08-06T11:22:38;27.80;50.70
23377;DHT22;14353;46.070;13.222;2023-08-06T11:25:06;27.80;50.70
23377;DHT22;14353;46.070;13.222;2023-08-06T11:27:32;27.90;50.70
23377;DHT22;14353;46.070;13.222;2023-08-06T11:29:58;27.90;50.70
23377;DHT22;14353;46.070;13.222;2023-08-06T11:32:23;27.90;50.60
23377;DHT22;14353;46.070;13.222;2023-08-06T11:34:50;27.90;50.60
23377;DHT22;14353;46.070;13.222;2023-08-06T11:37:16;27.90;50.60
23377;DHT22;14353;46.070;13.222;2023-08-06T11:39:46;28.00;50.60
23377;DHT22;14353;46.070;13.222;2023-08-06T11:42:13;27.90;50.50
23377;DHT22;14353;46.070;13.222;2023-08-06T11:44:40;27.90;50.50
23377;DHT22;14353;46.070;13.222;2023-08-06T11:47:14;28.00;50.60
23377;DHT22;14353;46.070;13.222;2023-08-06T11:52:19;27.90;50.60
23377;DHT22;14353;46.070;13.222;2023-08-06T11:57:32;28.00;50.50
23377;DHT22;14353;46.070;13.222;2023-08-06T12:00:11;27.90;50.50
23377;DHT22;14353;46.070;13.222;2023-08-06T12:02:39;28.00;50.50
23377;DHT22;14353;46.070;13.222;2023-08-06T12:07:40;28.00;50.50
23377;DHT22;14353;46.070;13.222;2023-08-06T12:10:07;28.00;50.50
23377;DHT22;14353;46.070;13.222;2023-08-06T12:12:34;28.00;50.50
23377;DHT22;14353;46.070;13.222;2023-08-06T12:15:00;28.00;50.50
23377;DHT22;14353;46.070;13.222;2023-08-06T12:17:26;28.00;50.50
23377;DHT22;14353;46.070;13.222;2023-08-06T12:19:52;28.00;50.50
23377;DHT22;14353;46.070;13.222;2023-08-06T12:22:18;28.00;50.50
23377;DHT22;14353;46.070;13.222;2023-08-06T12:24:45;28.00;50.50
23377;DHT22;14353;46.070;13.222;2023-08-06T12:27:11;28.00;50.40
23377;DHT22;14353;46.070;13.222;2023-08-06T12:29:41;28.00;50.40
23377;DHT22;14353;46.070;13.222;2023-08-06T12:32:08;28.10;50.50
23377;DHT22;14353;46.070;13.222;2023-08-06T12:34:33;28.00;50.30
23377;DHT22;14353;46.070;13.222;2023-08-06T12:36:59;28.00;50.40
23377;DHT22;14353;46.070;13.222;2023-08-06T12:39:25;28.00;50.40
23377;DHT22;14353;46.070;13.222;2023-08-06T12:41:54;28.00;50.50
23377;DHT22;14353;46.070;13.222;2023-08-06T12:44:20;28.00;50.50
23377;DHT22;14353;46.070;13.222;2023-08-06T12:46:45;28.00;50.50
23377;DHT22;14353;46.070;13.222;2023-08-06T12:49:11;28.00;50.50
23377;DHT22;14353;46.070;13.222;2023-08-06T12:51:37;28.00;50.50
23377;DHT22;14353;46.070;13.222;2023-08-06T12:54:02;28.00;50.50
23377;DHT22;14353;46.070;13.222;2023-08-06T12:56:28;28.00;50.50
23377;DHT22;14353;46.070;13.222;2023-08-06T12:58:54;28.00;51.10
23377;DHT22;14353;46.070;13.222;2023-08-06T13:01:20;28.00;50.50
23377;DHT22;14353;46.070;13.222;2023-08-06T13:03:45;28.10;50.50
23377;DHT22;14353;46.070;13.222;2023-08-06T13:06:11;28.10;50.40
23377;DHT22;14353;46.070;13.222;2023-08-06T13:08:37;28.00;50.40
23377;DHT22;14353;46.070;13.222;2023-08-06T13:11:04;28.00;50.40
23377;DHT22;14353;46.070;13.222;2023-08-06T13:13:30;28.10;50.40
23377;DHT22;14353;46.070;13.222;2023-08-06T13:15:56;28.10;50.40
23377;DHT22;14353;46.070;13.222;2023-08-06T13:18:21;28.10;50.30
23377;DHT22;14353;46.070;13.222;2023-08-06T13:20:47;28.10;50.30
23377;DHT22;14353;46.070;13.222;2023-08-06T13:23:15;28.20;50.30
23377;DHT22;14353;46.070;13.222;2023-08-06T13:25:42;28.10;50.20
23377;DHT22;14353;46.070;13.222;2023-08-06T13:28:08;28.10;50.30
23377;DHT22;14353;46.070;13.222;2023-08-06T13:30:34;28.10;50.10
23377;DHT22;14353;46.070;13.222;2023-08-06T13:33:01;28.10;50.30
23377;DHT22;14353;46.070;13.222;2023-08-06T13:35:27;28.10;50.30
23377;DHT22;14353;46.070;13.222;2023-08-06T13:37:52;28.10;50.30
23377;DHT22;14353;46.070;13.222;2023-08-06T13:40:19;28.10;50.40
23377;DHT22;14353;46.070;13.222;2023-08-06T13:42:45;28.00;50.40
23377;DHT22;14353;46.070;13.222;2023-08-06T13:45:11;28.00;50.50
23377;DHT22;14353;46.070;13.222;2023-08-06T13:47:36;28.00;50.60
23377;DHT22;14353;46.070;13.222;2023-08-06T13:50:02;28.00;50.60
23377;DHT22;14353;46.070;13.222;2023-08-06T13:52:29;28.00;50.70
23377;DHT22;14353;46.070;13.222;2023-08-06T13:54:54;27.90;50.70
23377;DHT22;14353;46.070;13.222;2023-08-06T13:57:20;27.90;50.80
23377;DHT22;14353;46.070;13.222;2023-08-06T13:59:46;27.90;50.90
23377;DHT22;14353;46.070;13.222;2023-08-06T14:02:11;27.90;50.90
23377;DHT22;14353;46.070;13.222;2023-08-06T14:04:37;27.90;51.00
23377;DHT22;14353;46.070;13.222;2023-08-06T14:07:04;27.80;51.00
23377;DHT22;14353;46.070;13.222;2023-08-06T14:09:29;27.80;51.00
23377;DHT22;14353;46.070;13.222;2023-08-06T14:11:55;27.80;51.00
23377;DHT22;14353;46.070;13.222;2023-08-06T14:14:21;27.80;51.00
23377;DHT22;14353;46.070;13.222;2023-08-06T14:16:52;27.80;51.00
23377;DHT22;14353;46.070;13.222;2023-08-06T14:19:17;27.80;51.10
23377;DHT22;14353;46.070;13.222;2023-08-06T14:21:43;27.80;51.10
23377;DHT22;14353;46.070;13.222;2023-08-06T14:24:09;27.80;51.20
23377;DHT22;14353;46.070;13.222;2023-08-06T14:26:34;27.70;51.10
23377;DHT22;14353;46.070;13.222;2023-08-06T14:29:01;27.70;51.20
23377;DHT22;14353;46.070;13.222;2023-08-06T14:31:26;27.70;51.20
23377;DHT22;14353;46.070;13.222;2023-08-06T14:33:52;27.70;51.30
23377;DHT22;14353;46.070;13.222;2023-08-06T14:36:18;27.70;51.20
23377;DHT22;14353;46.070;13.222;2023-08-06T14:38:44;27.70;51.30
23377;DHT22;14353;46.070;13.222;2023-08-06T14:41:10;27.60;51.30
23377;DHT22;14353;46.070;13.222;2023-08-06T14:43:36;27.60;51.30
23377;DHT22;14353;46.070;13.222;2023-08-06T14:46:02;27.60;51.40
23377;DHT22;14353;46.070;13.222;2023-08-06T14:48:28;27.60;51.40
23377;DHT22;14353;46.070;13.222;2023-08-06T14:50:54;27.60;51.40
23377;DHT22;14353;46.070;13.222;2023-08-06T14:53:20;27.50;51.40
23377;DHT22;14353;46.070;13.222;2023-08-06T14:55:46;27.50;51.50
23377;DHT22;14353;46.070;13.222;2023-08-06T14:58:12;27.50;51.60
23377;DHT22;14353;46.070;13.222;2023-08-06T15:00:37;27.50;51.70
23377;DHT22;14353;46.070;13.222;2023-08-06T15:03:03;27.50;51.80
23377;DHT22;14353;46.070;13.222;2023-08-06T15:05:29;27.40;51.80
23377;DHT22;14353;46.070;13.222;2023-08-06T15:07:54;27.40;51.80
23377;DHT22;14353;46.070;13.222;2023-08-06T15:10:20;27.40;51.90
23377;DHT22;14353;46.070;13.222;2023-08-06T15:12:46;27.40;52.00
23377;DHT22;14353;46.070;13.222;2023-08-06T15:15:12;27.30;52.00
23377;DHT22;14353;46.070;13.222;2023-08-06T15:17:37;27.30;52.00
23377;DHT22;14353;46.070;13.222;2023-08-06T15:20:04;27.30;52.10
23377;DHT22;14353;46.070;13.222;2023-08-06T15:22:30;27.30;52.20
23377;DHT22;14353;46.070;13.222;2023-08-06T15:25:00;27.30;52.20
23377;DHT22;14353;46.070;13.222;2023-08-06T15:27:26;27.30;52.30